createdAt,value
2018-12-29T00:00:27.920Z,2.00
2018-12-29T00:02:57.406Z,2.00
2018-12-29T00:05:26.827Z,1.90
2018-12-29T00:07:56.217Z,2.00
2018-12-29T00:10:25.643Z,1.90
2018-12-29T00:12:55.293Z,1.90
2018-12-29T00:15:24.780Z,1.90
2018-12-29T00:17:54.238Z,1.90
2018-12-29T00:20:23.492Z,1.90
2018-12-29T00:22:52.785Z,1.90
2018-12-29T00:25:22.457Z,1.90
2018-12-29T00:27:51.741Z,2.00
2018-12-29T00:30:21.111Z,2.00
2018-12-29T00:32:50.346Z,2.00
2018-12-29T00:35:19.745Z,2.00
2018-12-29T00:37:49.043Z,2.00
2018-12-29T00:40:18.795Z,1.80
2018-12-29T00:42:48.124Z,1.90
2018-12-29T00:45:17.426Z,1.90
2018-12-29T00:47:46.700Z,1.80
2018-12-29T00:50:16.023Z,1.90
2018-12-29T00:52:45.560Z,1.90
2018-12-29T00:55:15.321Z,1.90
2018-12-29T00:57:44.769Z,1.90
2018-12-29T01:00:14.572Z,1.90
2018-12-29T01:02:43.871Z,2.00
2018-12-29T01:05:13.222Z,2.00
2018-12-29T01:07:42.956Z,2.00
2018-12-29T01:10:12.454Z,1.90
2018-12-29T01:12:41.776Z,2.00
2018-12-29T01:15:10.978Z,1.90
2018-12-29T01:17:40.317Z,2.00
2018-12-29T01:20:09.641Z,2.00
2018-12-29T01:22:38.895Z,1.90
2018-12-29T01:25:08.203Z,1.90
2018-12-29T01:27:37.511Z,2.00
2018-12-29T01:30:07.975Z,2.00
2018-12-29T01:32:37.206Z,2.00
2018-12-29T01:35:06.776Z,2.00
2018-12-29T01:37:36.034Z,2.10
2018-12-29T01:40:05.927Z,2.10
2018-12-29T01:42:35.220Z,2.00
2018-12-29T01:45:05.136Z,2.00
2018-12-29T01:47:34.557Z,1.80
2018-12-29T01:50:04.069Z,1.80
2018-12-29T01:52:33.346Z,1.80
2018-12-29T01:55:02.618Z,1.90
2018-12-29T01:57:31.859Z,1.90
2018-12-29T02:00:01.523Z,1.90
2018-12-29T02:02:30.934Z,1.90
2018-12-29T02:05:00.269Z,1.90
2018-12-29T02:07:29.600Z,2.00
2018-12-29T02:09:58.935Z,2.00
2018-12-29T02:12:28.263Z,2.00
2018-12-29T02:14:57.564Z,1.90
2018-12-29T02:17:27.135Z,1.90
2018-12-29T02:19:56.781Z,1.90
2018-12-29T02:22:26.021Z,2.00
2018-12-29T02:24:55.292Z,2.00
2018-12-29T02:27:24.444Z,2.10
2018-12-29T02:29:53.926Z,2.10
2018-12-29T02:32:23.430Z,2.10
2018-12-29T02:34:52.780Z,2.10
2018-12-29T02:37:22.051Z,2.10
2018-12-29T02:39:51.292Z,2.00
2018-12-29T02:42:20.616Z,2.00
2018-12-29T02:44:49.836Z,1.80
2018-12-29T02:47:19.128Z,1.80
2018-12-29T02:49:48.451Z,1.70
2018-12-29T02:52:17.805Z,1.80
2018-12-29T02:54:47.554Z,1.80
2018-12-29T02:57:16.880Z,1.80
2018-12-29T02:59:46.177Z,1.90
2018-12-29T03:02:15.578Z,1.90
2018-12-29T03:04:44.861Z,2.00
2018-12-29T03:07:14.081Z,2.00
2018-12-29T03:09:43.661Z,1.90
2018-12-29T03:12:12.880Z,1.90
2018-12-29T03:14:42.117Z,1.90
2018-12-29T03:17:11.363Z,1.90
2018-12-29T03:19:40.690Z,1.90
2018-12-29T03:22:29.195Z,1.90
2018-12-29T03:24:58.433Z,1.90
2018-12-29T03:27:27.680Z,1.90
2018-12-29T03:29:56.906Z,1.80
2018-12-29T03:32:26.181Z,1.80
2018-12-29T03:34:55.393Z,1.80
2018-12-29T03:37:24.685Z,1.80
2018-12-29T03:39:53.856Z,1.90
2018-12-29T03:42:23.117Z,1.90
2018-12-29T03:44:52.304Z,1.90
2018-12-29T03:47:21.533Z,1.90
2018-12-29T03:49:50.734Z,1.90
2018-12-29T03:52:19.922Z,1.90
2018-12-29T03:54:49.199Z,1.90
2018-12-29T03:57:18.409Z,1.90
2018-12-29T03:59:47.583Z,1.80
2018-12-29T04:02:16.846Z,1.80
2018-12-29T04:04:46.051Z,1.80
2018-12-29T04:07:15.408Z,1.80
2018-12-29T04:09:44.753Z,1.80
2018-12-29T04:12:19.924Z,1.90
2018-12-29T04:14:49.163Z,1.80
2018-12-29T04:17:18.423Z,1.90
2018-12-29T04:19:47.600Z,1.80
2018-12-29T04:22:16.817Z,1.80
2018-12-29T04:24:46.130Z,1.80
2018-12-29T04:27:15.306Z,1.80
2018-12-29T04:29:44.592Z,1.80
2018-12-29T04:32:13.753Z,1.80
2018-12-29T04:34:43.038Z,1.80
2018-12-29T04:37:12.267Z,1.80
2018-12-29T04:39:41.808Z,1.80
2018-12-29T04:42:11.198Z,1.80
2018-12-29T04:44:40.397Z,1.80
2018-12-29T04:47:09.695Z,1.80
2018-12-29T04:49:38.978Z,1.80
2018-12-29T04:52:08.266Z,1.80
2018-12-29T04:54:37.500Z,1.80
2018-12-29T04:57:06.797Z,1.80
2018-12-29T04:59:35.947Z,1.80
2018-12-29T05:02:05.145Z,1.80
2018-12-29T05:04:34.321Z,1.80
2018-12-29T05:07:03.581Z,1.80
2018-12-29T05:09:32.820Z,1.90
2018-12-29T05:12:02.052Z,1.90
2018-12-29T05:14:31.291Z,1.80
2018-12-29T05:17:00.475Z,1.80
2018-12-29T05:19:29.647Z,1.80
2018-12-29T05:21:58.927Z,1.80
2018-12-29T05:24:28.189Z,1.80
2018-12-29T05:26:57.421Z,1.70
2018-12-29T05:29:26.622Z,1.60
2018-12-29T05:31:55.844Z,1.50
2018-12-29T05:34:25.091Z,1.50
2018-12-29T05:36:54.275Z,1.50
2018-12-29T05:39:26.293Z,1.50
2018-12-29T05:41:55.573Z,1.50
2018-12-29T05:44:24.777Z,1.60
2018-12-29T05:46:53.980Z,1.60
2018-12-29T05:49:23.163Z,1.60
2018-12-29T05:51:52.364Z,1.60
2018-12-29T05:54:21.652Z,1.50
2018-12-29T05:56:50.849Z,1.50
2018-12-29T05:59:20.116Z,1.40
2018-12-29T06:01:49.372Z,1.40
2018-12-29T06:04:18.662Z,1.40
2018-12-29T06:06:47.812Z,1.40
2018-12-29T06:09:17.076Z,1.40
2018-12-29T06:11:46.254Z,1.40
2018-12-29T06:14:15.564Z,1.30
2018-12-29T06:16:44.751Z,1.30
2018-12-29T06:19:13.925Z,1.40
2018-12-29T06:21:43.111Z,1.40
2018-12-29T06:24:12.417Z,1.40
2018-12-29T06:26:41.602Z,1.40
2018-12-29T06:29:10.919Z,1.50
2018-12-29T06:31:40.171Z,1.50
2018-12-29T06:34:09.391Z,1.50
2018-12-29T06:36:39.373Z,1.40
2018-12-29T06:39:08.997Z,1.40
2018-12-29T06:41:38.181Z,1.40
2018-12-29T06:44:07.327Z,1.40
2018-12-29T06:46:36.495Z,1.30
2018-12-29T06:49:05.739Z,1.40
2018-12-29T06:51:34.914Z,1.30
2018-12-29T06:54:04.091Z,1.40
2018-12-29T06:56:33.375Z,1.40
2018-12-29T06:59:02.603Z,1.40
2018-12-29T07:01:31.808Z,1.40
2018-12-29T07:04:01.037Z,1.40
2018-12-29T07:06:30.346Z,1.50
2018-12-29T07:08:59.522Z,1.50
2018-12-29T07:11:28.688Z,1.60
2018-12-29T07:13:57.893Z,1.60
2018-12-29T07:16:27.115Z,1.60
2018-12-29T07:18:56.307Z,1.60
2018-12-29T07:21:25.591Z,1.60
2018-12-29T07:23:54.753Z,1.50
2018-12-29T07:26:23.973Z,1.60
2018-12-29T07:28:53.127Z,1.70
2018-12-29T07:31:22.386Z,1.70
2018-12-29T07:33:51.665Z,1.80
2018-12-29T07:36:20.935Z,1.80
2018-12-29T07:38:50.126Z,1.80
2018-12-29T07:41:19.413Z,1.80
2018-12-29T07:43:48.698Z,1.90
2018-12-29T07:46:17.855Z,1.90
2018-12-29T07:48:47.147Z,1.90
2018-12-29T07:51:16.326Z,1.90
2018-12-29T07:53:45.559Z,1.90
2018-12-29T07:56:14.762Z,2.00
2018-12-29T07:58:44.042Z,2.00
2018-12-29T08:01:13.321Z,2.00
2018-12-29T08:03:42.547Z,2.00
2018-12-29T08:06:11.784Z,2.00
2018-12-29T08:08:41.045Z,2.00
2018-12-29T08:11:10.264Z,2.00
2018-12-29T08:13:39.543Z,2.00
2018-12-29T08:16:08.900Z,2.10
2018-12-29T08:18:38.390Z,2.10
2018-12-29T08:21:07.576Z,2.10
2018-12-29T08:23:36.788Z,2.10
2018-12-29T08:26:06.149Z,2.10
2018-12-29T08:28:35.468Z,2.00
2018-12-29T08:31:04.784Z,2.00
2018-12-29T08:33:33.976Z,2.00
2018-12-29T08:36:03.203Z,2.00
2018-12-29T08:38:32.455Z,2.00
2018-12-29T08:41:01.720Z,2.10
2018-12-29T08:43:30.913Z,2.10
2018-12-29T08:46:00.323Z,2.20
2018-12-29T08:48:29.496Z,2.20
2018-12-29T08:50:58.716Z,2.20
2018-12-29T08:53:27.905Z,2.40
2018-12-29T08:55:57.194Z,2.40
2018-12-29T08:58:26.355Z,2.50
2018-12-29T09:00:55.647Z,2.60
2018-12-29T09:03:24.858Z,2.60
2018-12-29T09:05:54.184Z,2.60
2018-12-29T09:08:23.388Z,2.60
2018-12-29T09:10:52.608Z,2.70
2018-12-29T09:13:21.916Z,2.70
2018-12-29T09:15:52.036Z,2.70
2018-12-29T09:18:21.277Z,2.80
2018-12-29T09:20:50.558Z,2.80
2018-12-29T09:23:20.107Z,2.80
2018-12-29T09:25:49.506Z,2.70
2018-12-29T09:28:18.778Z,2.80
2018-12-29T09:30:48.154Z,2.80
2018-12-29T09:33:17.456Z,2.90
2018-12-29T09:35:46.621Z,3.00
2018-12-29T09:38:15.838Z,3.00
2018-12-29T09:40:45.042Z,3.00
2018-12-29T09:43:14.318Z,2.90
2018-12-29T09:45:43.520Z,2.90
2018-12-29T09:48:12.780Z,2.90
2018-12-29T09:50:42.198Z,3.00
2018-12-29T09:53:11.878Z,2.90
2018-12-29T09:55:41.172Z,2.80
2018-12-29T09:58:10.436Z,2.70
2018-12-29T10:00:39.655Z,2.60
2018-12-29T10:03:08.937Z,2.60
2018-12-29T10:05:38.172Z,2.60
2018-12-29T10:08:07.471Z,2.70
2018-12-29T10:10:36.812Z,2.90
2018-12-29T10:13:06.028Z,3.00
2018-12-29T10:15:35.269Z,2.90
2018-12-29T10:18:04.453Z,2.80
2018-12-29T10:20:33.747Z,2.80
2018-12-29T10:23:02.993Z,2.70
2018-12-29T10:25:32.211Z,2.70
2018-12-29T10:28:01.781Z,2.60
2018-12-29T10:30:31.128Z,2.50
2018-12-29T10:33:00.320Z,2.50
2018-12-29T10:35:29.971Z,2.70
2018-12-29T10:37:59.217Z,2.60
2018-12-29T10:40:28.467Z,2.60
2018-12-29T10:42:57.715Z,2.60
2018-12-29T10:45:26.998Z,2.80
2018-12-29T10:47:56.210Z,3.00
2018-12-29T10:50:25.711Z,2.90
2018-12-29T10:52:55.047Z,2.90
2018-12-29T10:55:24.287Z,2.90
2018-12-29T10:57:53.479Z,2.90
2018-12-29T11:00:22.745Z,3.00
2018-12-29T11:02:51.963Z,3.00
2018-12-29T11:05:21.270Z,3.10
2018-12-29T11:07:50.588Z,3.20
2018-12-29T11:10:19.811Z,3.40
2018-12-29T11:12:49.120Z,3.50
2018-12-29T11:15:18.300Z,3.60
2018-12-29T11:17:47.643Z,3.70
2018-12-29T11:20:16.862Z,3.80
2018-12-29T11:22:46.164Z,3.80
2018-12-29T11:25:15.447Z,3.80
2018-12-29T11:27:44.688Z,3.80
2018-12-29T11:30:13.929Z,3.90
2018-12-29T11:32:43.392Z,4.00
2018-12-29T11:35:12.679Z,3.90
2018-12-29T11:37:41.968Z,3.80
2018-12-29T11:40:11.173Z,3.90
2018-12-29T11:42:40.483Z,3.80
2018-12-29T11:45:09.792Z,3.80
2018-12-29T11:47:39.320Z,3.70
2018-12-29T11:50:09.065Z,3.60
2018-12-29T11:52:38.484Z,3.60
2018-12-29T11:55:07.872Z,3.60
2018-12-29T11:57:37.082Z,3.70
2018-12-29T12:00:08.422Z,3.80
2018-12-29T12:02:37.738Z,3.90
2018-12-29T12:05:08.572Z,3.90
2018-12-29T12:07:37.828Z,3.90
2018-12-29T12:10:07.057Z,3.90
2018-12-29T12:12:36.909Z,4.00
2018-12-29T12:15:07.310Z,4.00
2018-12-29T12:17:36.672Z,4.10
2018-12-29T12:20:06.581Z,3.80
2018-12-29T12:22:35.867Z,3.70
2018-12-29T12:25:05.192Z,3.70
2018-12-29T12:27:34.388Z,3.80
2018-12-29T12:30:04.426Z,3.80
2018-12-29T12:32:33.680Z,3.90
2018-12-29T12:35:03.435Z,3.90
2018-12-29T12:37:33.065Z,3.90
2018-12-29T12:40:02.326Z,4.00
2018-12-29T12:42:31.698Z,4.10
2018-12-29T12:45:01.699Z,4.10
2018-12-29T12:47:31.047Z,4.20
2018-12-29T12:50:00.496Z,4.20
2018-12-29T12:52:30.282Z,4.20
2018-12-29T12:54:59.635Z,4.30
2018-12-29T12:57:28.971Z,4.40
2018-12-29T12:59:58.539Z,4.40
2018-12-29T13:02:28.356Z,4.40
2018-12-29T13:04:57.575Z,4.40
2018-12-29T13:07:26.805Z,4.40
2018-12-29T13:09:56.098Z,4.40
2018-12-29T13:12:25.372Z,4.50
2018-12-29T13:14:54.570Z,4.60
2018-12-29T13:17:23.815Z,4.50
2018-12-29T13:19:53.041Z,4.40
2018-12-29T13:22:22.355Z,4.50
2018-12-29T13:24:51.615Z,4.50
2018-12-29T13:27:20.908Z,4.50
2018-12-29T13:29:50.197Z,4.50
2018-12-29T13:32:19.682Z,4.50
2018-12-29T13:34:49.026Z,4.50
2018-12-29T13:37:18.355Z,4.40
2018-12-29T13:39:47.584Z,4.50
2018-12-29T13:42:16.886Z,4.50
2018-12-29T13:44:46.077Z,4.40
2018-12-29T13:47:15.275Z,4.50
2018-12-29T13:49:44.998Z,4.50
2018-12-29T13:52:14.620Z,4.50
2018-12-29T13:54:43.836Z,4.50
2018-12-29T13:57:13.130Z,4.50
2018-12-29T13:59:42.552Z,4.50
2018-12-29T14:02:11.838Z,4.50
2018-12-29T14:04:42.824Z,4.50
2018-12-29T14:07:12.048Z,4.50
2018-12-29T14:09:41.254Z,4.50
2018-12-29T14:12:10.940Z,4.60
2018-12-29T14:14:40.671Z,4.60
2018-12-29T14:17:09.990Z,4.70
2018-12-29T14:19:39.421Z,4.60
2018-12-29T14:22:08.738Z,4.70
2018-12-29T14:24:38.044Z,4.60
2018-12-29T14:27:07.772Z,4.60
2018-12-29T14:29:37.060Z,4.60
2018-12-29T14:32:06.499Z,4.60
2018-12-29T14:34:35.943Z,4.50
2018-12-29T14:37:05.440Z,4.50
2018-12-29T14:39:34.865Z,4.50
2018-12-29T14:42:04.102Z,4.50
2018-12-29T14:44:33.469Z,4.60
2018-12-29T14:47:03.298Z,4.60
2018-12-29T14:49:32.619Z,4.60
2018-12-29T14:52:01.845Z,4.40
2018-12-29T14:54:31.185Z,4.50
2018-12-29T14:57:00.538Z,4.40
2018-12-29T14:59:29.883Z,4.30
2018-12-29T15:01:59.177Z,4.30
2018-12-29T15:04:28.465Z,4.30
2018-12-29T15:06:58.072Z,4.30
2018-12-29T15:09:27.480Z,4.40
2018-12-29T15:11:56.919Z,4.40
2018-12-29T15:14:26.328Z,4.50
2018-12-29T15:16:55.853Z,4.30
2018-12-29T15:19:25.255Z,4.30
2018-12-29T15:21:54.650Z,4.20
2018-12-29T15:24:23.834Z,4.20
2018-12-29T15:26:53.208Z,4.20
2018-12-29T15:29:22.992Z,4.10
2018-12-29T15:31:52.372Z,4.00
2018-12-29T15:34:21.692Z,4.00
2018-12-29T15:36:50.999Z,4.00
2018-12-29T15:39:20.865Z,4.10
2018-12-29T15:41:50.196Z,4.10
2018-12-29T15:44:19.480Z,4.20
2018-12-29T15:46:48.670Z,4.10
2018-12-29T15:49:17.966Z,4.20
2018-12-29T15:51:47.316Z,4.30
2018-12-29T15:54:16.529Z,4.30
2018-12-29T15:56:45.772Z,4.30
2018-12-29T15:59:14.973Z,4.30
2018-12-29T16:01:44.150Z,4.30
2018-12-29T16:04:13.404Z,4.20
2018-12-29T16:06:42.819Z,4.30
2018-12-29T16:09:12.044Z,4.20
2018-12-29T16:11:41.618Z,4.10
2018-12-29T16:14:10.872Z,4.00
2018-12-29T16:16:40.619Z,3.90
2018-12-29T16:19:10.036Z,3.90
2018-12-29T16:21:39.616Z,3.90
2018-12-29T16:24:09.211Z,3.80
2018-12-29T16:26:38.500Z,3.70
2018-12-29T16:29:07.883Z,3.70
2018-12-29T16:31:37.867Z,3.60
2018-12-29T16:34:08.718Z,3.70
2018-12-29T16:36:38.028Z,3.70
2018-12-29T16:39:08.131Z,3.70
2018-12-29T16:41:37.398Z,3.60
2018-12-29T16:44:06.622Z,3.50
2018-12-29T16:46:36.767Z,3.40
2018-12-29T16:49:06.942Z,3.30
2018-12-29T16:51:36.436Z,3.30
2018-12-29T16:54:05.668Z,3.20
2018-12-29T16:56:35.430Z,3.30
2018-12-29T16:59:04.838Z,3.30
2018-12-29T17:01:34.139Z,3.30
2018-12-29T17:04:03.385Z,3.30
2018-12-29T17:06:32.907Z,3.30
2018-12-29T17:09:02.166Z,3.30
2018-12-29T17:11:31.484Z,3.40
2018-12-29T17:14:01.062Z,3.50
2018-12-29T17:16:30.271Z,3.50
2018-12-29T17:18:59.485Z,3.50
2018-12-29T17:21:28.817Z,3.60
2018-12-29T17:23:58.075Z,3.50
2018-12-29T17:26:27.435Z,3.60
2018-12-29T17:28:56.796Z,3.60
2018-12-29T17:31:26.048Z,3.60
2018-12-29T17:33:55.422Z,3.60
2018-12-29T17:36:25.032Z,3.60
2018-12-29T17:38:54.258Z,3.60
2018-12-29T17:41:23.564Z,3.60
2018-12-29T17:43:53.147Z,3.60
2018-12-29T17:46:22.414Z,3.70
2018-12-29T17:48:52.041Z,3.70
2018-12-29T17:51:21.313Z,3.70
2018-12-29T17:53:50.679Z,3.70
2018-12-29T17:56:20.383Z,3.70
2018-12-29T17:58:49.919Z,3.70
2018-12-29T18:01:19.214Z,3.60
2018-12-29T18:03:48.399Z,3.60
2018-12-29T18:06:17.614Z,3.60
2018-12-29T18:08:47.274Z,3.70
2018-12-29T18:11:16.661Z,3.70
2018-12-29T18:13:46.284Z,3.70
2018-12-29T18:16:35.023Z,3.70
2018-12-29T18:19:04.319Z,3.70
2018-12-29T18:21:33.547Z,3.70
2018-12-29T18:24:02.985Z,3.80
2018-12-29T18:26:32.184Z,3.80
2018-12-29T18:29:01.436Z,3.80
2018-12-29T18:31:30.823Z,3.80
2018-12-29T18:34:00.198Z,3.80
2018-12-29T18:36:29.683Z,3.90
2018-12-29T18:38:59.013Z,3.90
2018-12-29T18:41:28.501Z,3.90
2018-12-29T18:43:57.769Z,4.00
2018-12-29T18:46:26.972Z,4.00
2018-12-29T18:48:56.363Z,4.00
2018-12-29T18:51:25.671Z,4.00
2018-12-29T18:53:55.485Z,4.00
2018-12-29T18:56:25.593Z,4.10
2018-12-29T18:58:54.942Z,4.10
2018-12-29T19:01:24.363Z,4.10
2018-12-29T19:03:54.065Z,4.10
2018-12-29T19:06:23.473Z,4.10
2018-12-29T19:08:52.857Z,4.10
2018-12-29T19:11:22.128Z,4.20
2018-12-29T19:13:51.436Z,4.20
2018-12-29T19:16:20.840Z,4.20
2018-12-29T19:18:50.393Z,4.20
2018-12-29T19:21:21.342Z,4.20
2018-12-29T19:23:50.949Z,4.20
2018-12-29T19:26:20.517Z,4.30
2018-12-29T19:28:50.206Z,4.30
2018-12-29T19:31:19.881Z,4.30
2018-12-29T19:33:49.131Z,4.40
2018-12-29T19:36:18.353Z,4.40
2018-12-29T19:38:48.142Z,4.40
2018-12-29T19:41:17.716Z,4.40
2018-12-29T19:43:47.517Z,4.40
2018-12-29T19:46:17.185Z,4.40
2018-12-29T19:48:46.474Z,4.40
2018-12-29T19:51:16.097Z,4.40
2018-12-29T19:53:45.902Z,4.40
2018-12-29T19:56:15.109Z,4.40
2018-12-29T19:58:44.390Z,4.40
2018-12-29T20:01:13.992Z,4.40
2018-12-29T20:03:43.224Z,4.40
2018-12-29T20:06:12.529Z,4.40
2018-12-29T20:08:41.841Z,4.40
2018-12-29T20:11:11.162Z,4.40
2018-12-29T20:13:40.421Z,4.30
2018-12-29T20:16:09.726Z,4.30
2018-12-29T20:18:38.956Z,4.30
2018-12-29T20:21:08.256Z,4.20
2018-12-29T20:23:37.540Z,4.20
2018-12-29T20:26:07.240Z,4.20
2018-12-29T20:28:36.518Z,4.20
2018-12-29T20:31:05.836Z,4.20
2018-12-29T20:33:35.089Z,4.20
2018-12-29T20:36:04.379Z,4.20
2018-12-29T20:38:33.606Z,4.20
2018-12-29T20:41:02.936Z,4.20
2018-12-29T20:43:32.338Z,4.20
2018-12-29T20:46:01.830Z,4.20
2018-12-29T20:48:31.197Z,4.20
2018-12-29T20:51:00.565Z,4.20
2018-12-29T20:53:29.929Z,4.20
2018-12-29T20:55:59.314Z,4.20
2018-12-29T20:58:29.273Z,4.20
2018-12-29T21:00:58.698Z,4.20
2018-12-29T21:03:28.011Z,4.20
2018-12-29T21:05:57.356Z,4.20
2018-12-29T21:08:27.022Z,4.20
2018-12-29T21:10:56.392Z,4.20
2018-12-29T21:13:25.729Z,4.20
2018-12-29T21:15:54.985Z,4.30
2018-12-29T21:18:24.176Z,4.30
2018-12-29T21:20:53.556Z,4.20
2018-12-29T21:23:23.195Z,4.20
2018-12-29T21:25:52.528Z,4.20
2018-12-29T21:28:21.864Z,4.30
2018-12-29T21:30:51.261Z,4.30
2018-12-29T21:33:20.625Z,4.30
2018-12-29T21:35:50.141Z,4.30
2018-12-29T21:38:19.449Z,4.30
2018-12-29T21:40:48.683Z,4.30
2018-12-29T21:43:18.085Z,4.30
2018-12-29T21:45:47.378Z,4.30
2018-12-29T21:48:16.692Z,4.30
2018-12-29T21:50:46.055Z,4.30
2018-12-29T21:53:15.374Z,4.30
2018-12-29T21:55:44.567Z,4.30
2018-12-29T21:58:13.829Z,4.30
2018-12-29T22:00:43.209Z,4.30
2018-12-29T22:03:12.737Z,4.30
2018-12-29T22:05:42.041Z,4.20
2018-12-29T22:08:11.360Z,4.20
2018-12-29T22:10:40.740Z,4.20
2018-12-29T22:13:10.061Z,4.20
2018-12-29T22:15:39.731Z,4.20
2018-12-29T22:18:09.004Z,4.20
2018-12-29T22:20:38.364Z,4.20
2018-12-29T22:23:07.687Z,4.20
2018-12-29T22:25:36.924Z,4.20
2018-12-29T22:28:06.859Z,4.30
2018-12-29T22:30:36.148Z,4.30
2018-12-29T22:33:05.401Z,4.30
2018-12-29T22:35:34.818Z,4.40
2018-12-29T22:38:04.118Z,4.50
2018-12-29T22:40:34.048Z,4.60
2018-12-29T22:43:03.261Z,4.60
2018-12-29T22:45:32.461Z,4.70
2018-12-29T22:48:01.688Z,4.70
2018-12-29T22:50:30.913Z,4.80
2018-12-29T22:53:00.258Z,4.90
2018-12-29T22:55:29.461Z,4.90
2018-12-29T22:57:58.672Z,5.00
2018-12-29T23:00:44.705Z,5.00
2018-12-29T23:03:14.062Z,5.00
2018-12-29T23:05:43.740Z,5.10
2018-12-29T23:08:13.004Z,5.10
2018-12-29T23:10:42.321Z,5.10
2018-12-29T23:13:11.616Z,5.20
2018-12-29T23:15:40.909Z,5.20
2018-12-29T23:18:10.298Z,5.20
2018-12-29T23:20:40.022Z,5.30
2018-12-29T23:23:09.371Z,5.30
2018-12-29T23:25:38.741Z,5.30
2018-12-29T23:28:08.060Z,5.30
2018-12-29T23:30:37.362Z,5.30
2018-12-29T23:33:06.596Z,5.30
2018-12-29T23:35:35.816Z,5.30
2018-12-29T23:38:05.732Z,5.40
2018-12-29T23:40:34.985Z,5.40
2018-12-29T23:43:04.380Z,5.40
2018-12-29T23:45:34.133Z,5.40
2018-12-29T23:48:03.406Z,5.40
2018-12-29T23:50:32.715Z,5.50
2018-12-29T23:53:02.501Z,5.50
2018-12-29T23:55:32.051Z,5.50
2018-12-29T23:58:01.337Z,5.50
